sensor_id;sensor_type;location;lat;lon;timestamp;pressure;altitude;pressure_sealevel;temperature;humidity
11413;BME280;5762;43.256;26.960;2022-08-07T00:01:01;99244.52;;;22.19;100.00
11413;BME280;5762;43.256;26.960;2022-08-07T00:03:31;99251.00;;;22.10;100.00
11413;BME280;5762;43.256;26.960;2022-08-07T00:06:00;99260.76;;;22.00;100.00
11413;BME280;5762;43.256;26.960;2022-08-07T00:08:29;99253.52;;;22.02;100.00
11413;BME280;5762;43.256;26.960;2022-08-07T00:10:58;99253.27;;;21.97;100.00
11413;BME280;5762;43.256;26.960;2022-08-07T00:13:27;99255.89;;;22.03;100.00
11413;BME280;5762;43.256;26.960;2022-08-07T00:15:57;99258.86;;;22.08;100.00
11413;BME280;5762;43.256;26.960;2022-08-07T00:18:27;99248.66;;;22.19;100.00
11413;BME280;5762;43.256;26.960;2022-08-07T00:20:59;99249.29;;;22.29;100.00
11413;BME280;5762;43.256;26.960;2022-08-07T00:25:56;99240.86;;;22.39;100.00
11413;BME280;5762;43.256;26.960;2022-08-07T00:28:26;99235.55;;;22.40;100.00
11413;BME280;5762;43.256;26.960;2022-08-07T00:30:55;99248.34;;;22.38;100.00
11413;BME280;5762;43.256;26.960;2022-08-07T00:33:25;99243.62;;;22.39;100.00
11413;BME280;5762;43.256;26.960;2022-08-07T00:35:54;99240.67;;;22.42;100.00
11413;BME280;5762;43.256;26.960;2022-08-07T00:38:23;99245.39;;;22.41;100.00
11413;BME280;5762;43.256;26.960;2022-08-07T00:40:52;99238.33;;;22.47;100.00
11413;BME280;5762;43.256;26.960;2022-08-07T00:43:22;99235.57;;;22.47;100.00
11413;BME280;5762;43.256;26.960;2022-08-07T00:45:51;99240.89;;;22.50;100.00
11413;BME280;5762;43.256;26.960;2022-08-07T00:48:20;99236.57;;;22.52;100.00
11413;BME280;5762;43.256;26.960;2022-08-07T00:50:49;99243.25;;;22.55;100.00
11413;BME280;5762;43.256;26.960;2022-08-07T00:53:19;99242.28;;;22.60;100.00
11413;BME280;5762;43.256;26.960;2022-08-07T00:58:18;99243.68;;;22.67;100.00
11413;BME280;5762;43.256;26.960;2022-08-07T01:00:48;99243.28;;;22.65;100.00
11413;BME280;5762;43.256;26.960;2022-08-07T01:03:17;99248.80;;;22.65;100.00
11413;BME280;5762;43.256;26.960;2022-08-07T01:05:46;99243.88;;;22.68;100.00
11413;BME280;5762;43.256;26.960;2022-08-07T01:08:16;99242.70;;;22.73;100.00
11413;BME280;5762;43.256;26.960;2022-08-07T01:10:45;99247.84;;;22.74;100.00
11413;BME280;5762;43.256;26.960;2022-08-07T01:13:14;99236.80;;;22.74;100.00
11413;BME280;5762;43.256;26.960;2022-08-07T01:15:44;99241.34;;;22.77;100.00
11413;BME280;5762;43.256;26.960;2022-08-07T01:18:13;99247.84;;;22.74;100.00
11413;BME280;5762;43.256;26.960;2022-08-07T01:20:44;99251.17;;;22.70;100.00
11413;BME280;5762;43.256;26.960;2022-08-07T01:23:12;99255.50;;;22.68;100.00
11413;BME280;5762;43.256;26.960;2022-08-07T01:25:42;99256.27;;;22.61;100.00
11413;BME280;5762;43.256;26.960;2022-08-07T01:28:12;99251.74;;;22.63;100.00
11413;BME280;5762;43.256;26.960;2022-08-07T01:30:42;99255.91;;;22.73;100.00
11413;BME280;5762;43.256;26.960;2022-08-07T01:33:11;99250.59;;;22.71;100.00
11413;BME280;5762;43.256;26.960;2022-08-07T01:35:40;99250.98;;;22.69;100.00
11413;BME280;5762;43.256;26.960;2022-08-07T01:38:10;99249.41;;;22.72;100.00
11413;BME280;5762;43.256;26.960;2022-08-07T01:40:39;99250.77;;;22.65;100.00
11413;BME280;5762;43.256;26.960;2022-08-07T01:43:08;99243.08;;;22.64;100.00
11413;BME280;5762;43.256;26.960;2022-08-07T01:45:37;99242.68;;;22.62;100.00
11413;BME280;5762;43.256;26.960;2022-08-07T01:48:06;99241.52;;;22.70;100.00
11413;BME280;5762;43.256;26.960;2022-08-07T01:50:36;99248.80;;;22.65;100.00
11413;BME280;5762;43.256;26.960;2022-08-07T01:53:05;99253.52;;;22.61;100.00
11413;BME280;5762;43.256;26.960;2022-08-07T01:55:36;99248.59;;;22.64;100.00
11413;BME280;5762;43.256;26.960;2022-08-07T01:58:06;99255.31;;;22.70;100.00
11413;BME280;5762;43.256;26.960;2022-08-07T02:00:35;99247.02;;;22.63;100.00
11413;BME280;5762;43.256;26.960;2022-08-07T02:03:06;99255.48;;;22.61;100.00
11413;BME280;5762;43.256;26.960;2022-08-07T02:05:35;99248.00;;;22.61;100.00
11413;BME280;5762;43.256;26.960;2022-08-07T02:08:07;99251.14;;;22.60;100.00
11413;BME280;5762;43.256;26.960;2022-08-07T02:13:03;99257.26;;;22.52;100.00
11413;BME280;5762;43.256;26.960;2022-08-07T02:15:33;99253.69;;;22.55;100.00
11413;BME280;5762;43.256;26.960;2022-08-07T02:20:33;99252.70;;;22.54;100.00
11413;BME280;5762;43.256;26.960;2022-08-07T02:23:02;99252.13;;;22.51;100.00
11413;BME280;5762;43.256;26.960;2022-08-07T02:25:32;99251.14;;;22.49;100.00
11413;BME280;5762;43.256;26.960;2022-08-07T02:28:01;99250.94;;;22.48;100.00
11413;BME280;5762;43.256;26.960;2022-08-07T02:30:31;99254.07;;;22.43;100.00
11413;BME280;5762;43.256;26.960;2022-08-07T02:33:01;99255.03;;;22.37;100.00
11413;BME280;5762;43.256;26.960;2022-08-07T02:38:00;99259.16;;;22.34;100.00
11413;BME280;5762;43.256;26.960;2022-08-07T02:40:29;99257.78;;;22.34;100.00
11413;BME280;5762;43.256;26.960;2022-08-07T02:42:59;99256.77;;;22.29;100.00
11413;BME280;5762;43.256;26.960;2022-08-07T02:45:29;99264.45;;;22.29;100.00
11413;BME280;5762;43.256;26.960;2022-08-07T02:47:59;99264.40;;;22.19;100.00
11413;BME280;5762;43.256;26.960;2022-08-07T02:50:28;99268.36;;;22.18;100.00
11413;BME280;5762;43.256;26.960;2022-08-07T02:53:00;99259.89;;;22.17;100.00
11413;BME280;5762;43.256;26.960;2022-08-07T02:55:28;99257.14;;;22.17;100.00
11413;BME280;5762;43.256;26.960;2022-08-07T02:58:00;99258.11;;;22.15;100.00
11413;BME280;5762;43.256;26.960;2022-08-07T03:00:27;99262.05;;;22.14;100.00
11413;BME280;5762;43.256;26.960;2022-08-07T03:02:57;99267.16;;;22.19;100.00
11413;BME280;5762;43.256;26.960;2022-08-07T03:05:26;99268.95;;;22.17;100.00
11413;BME280;5762;43.256;26.960;2022-08-07T03:07:56;99274.05;;;22.19;100.00
11413;BME280;5762;43.256;26.960;2022-08-07T03:10:26;99268.35;;;22.21;100.00
11413;BME280;5762;43.256;26.960;2022-08-07T03:12:55;99276.43;;;22.17;100.00
11413;BME280;5762;43.256;26.960;2022-08-07T03:15:24;99280.77;;;22.18;100.00
11413;BME280;5762;43.256;26.960;2022-08-07T03:17:54;99278.02;;;22.18;100.00
11413;BME280;5762;43.256;26.960;2022-08-07T03:20:23;99281.74;;;22.16;100.00
11413;BME280;5762;43.256;26.960;2022-08-07T03:22:53;99276.43;;;22.17;100.00
11413;BME280;5762;43.256;26.960;2022-08-07T03:25:23;99279.17;;;22.20;100.00
11413;BME280;5762;43.256;26.960;2022-08-07T03:30:22;99285.20;;;21.71;100.00
11413;BME280;5762;43.256;26.960;2022-08-07T03:32:52;99283.45;;;21.45;100.00
11413;BME280;5762;43.256;26.960;2022-08-07T03:35:22;99290.13;;;21.44;100.00
11413;BME280;5762;43.256;26.960;2022-08-07T03:37:52;99289.55;;;21.45;100.00
11413;BME280;5762;43.256;26.960;2022-08-07T03:40:22;99294.47;;;21.49;100.00
11413;BME280;5762;43.256;26.960;2022-08-07T03:42:51;99292.30;;;21.45;100.00
11413;BME280;5762;43.256;26.960;2022-08-07T03:45:22;99292.59;;;21.32;100.00
11413;BME280;5762;43.256;26.960;2022-08-07T03:47:51;99286.26;;;21.28;100.00
11413;BME280;5762;43.256;26.960;2022-08-07T03:50:20;99293.20;;;21.35;100.00
11413;BME280;5762;43.256;26.960;2022-08-07T03:52:51;99292.03;;;21.36;100.00
11413;BME280;5762;43.256;26.960;2022-08-07T03:55:20;99295.41;;;21.39;100.00
11413;BME280;5762;43.256;26.960;2022-08-07T03:57:49;99295.93;;;21.59;100.00
11413;BME280;5762;43.256;26.960;2022-08-07T04:00:18;99296.11;;;21.88;100.00
11413;BME280;5762;43.256;26.960;2022-08-07T04:02:48;99299.03;;;22.09;100.00
11413;BME280;5762;43.256;26.960;2022-08-07T04:05:19;99296.38;;;22.34;100.00
11413;BME280;5762;43.256;26.960;2022-08-07T04:07:47;99297.80;;;22.45;100.00
11413;BME280;5762;43.256;26.960;2022-08-07T04:10:17;99299.22;;;22.62;100.00
11413;BME280;5762;43.256;26.960;2022-08-07T04:12:46;99293.61;;;22.83;100.00
11413;BME280;5762;43.256;26.960;2022-08-07T04:15:16;99297.55;;;22.96;100.00
11413;BME280;5762;43.256;26.960;2022-08-07T04:17:45;99298.58;;;23.15;100.00
11413;BME280;5762;43.256;26.960;2022-08-07T04:20:14;99294.63;;;23.30;100.00
11413;BME280;5762;43.256;26.960;2022-08-07T04:22:44;99295.42;;;23.42;100.00
11413;BME280;5762;43.256;26.960;2022-08-07T04:25:14;99287.36;;;23.53;100.00
11413;BME280;5762;43.256;26.960;2022-08-07T04:27:44;99289.89;;;23.59;100.00
11413;BME280;5762;43.256;26.960;2022-08-07T04:30:13;99289.88;;;23.27;100.00
11413;BME280;5762;43.256;26.960;2022-08-07T04:32:42;99295.80;;;23.26;100.00
11413;BME280;5762;43.256;26.960;2022-08-07T04:35:12;99288.91;;;23.51;100.00
11413;BME280;5762;43.256;26.960;2022-08-07T04:37:41;99295.02;;;23.68;100.00
11413;BME280;5762;43.256;26.960;2022-08-07T04:40:10;99293.43;;;23.81;100.00
11413;BME280;5762;43.256;26.960;2022-08-07T04:42:39;99290.02;;;23.92;100.00
11413;BME280;5762;43.256;26.960;2022-08-07T04:45:09;99297.52;;;24.02;100.00
11413;BME280;5762;43.256;26.960;2022-08-07T04:55:11;99290.41;;;24.59;100.00
11413;BME280;5762;43.256;26.960;2022-08-07T05:05:09;99287.17;;;25.04;100.00
11413;BME280;5762;43.256;26.960;2022-08-07T05:07:39;99292.66;;;25.12;100.00
11413;BME280;5762;43.256;26.960;2022-08-07T05:12:39;99291.61;;;25.43;100.00
11413;BME280;5762;43.256;26.960;2022-08-07T05:15:06;99284.06;;;25.47;100.00
11413;BME280;5762;43.256;26.960;2022-08-07T05:17:35;99290.39;;;25.70;100.00
11413;BME280;5762;43.256;26.960;2022-08-07T05:20:05;99291.27;;;25.82;100.00
11413;BME280;5762;43.256;26.960;2022-08-07T05:22:35;99291.42;;;25.87;100.00
11413;BME280;5762;43.256;26.960;2022-08-07T05:25:05;99292.33;;;25.95;100.00
11413;BME280;5762;43.256;26.960;2022-08-07T05:27:34;99292.61;;;26.04;100.00
11413;BME280;5762;43.256;26.960;2022-08-07T05:30:04;99293.09;;;26.15;100.00
11413;BME280;5762;43.256;26.960;2022-08-07T05:32:34;99297.03;;;26.17;100.00
11413;BME280;5762;43.256;26.960;2022-08-07T05:35:04;99293.98;;;26.23;100.00
11413;BME280;5762;43.256;26.960;2022-08-07T05:37:33;99291.47;;;26.36;100.00
11413;BME280;5762;43.256;26.960;2022-08-07T05:40:03;99287.86;;;26.39;100.00
11413;BME280;5762;43.256;26.960;2022-08-07T05:42:32;99291.34;;;26.31;100.00
11413;BME280;5762;43.256;26.960;2022-08-07T05:45:03;99300.52;;;26.25;100.00
11413;BME280;5762;43.256;26.960;2022-08-07T05:47:31;99303.43;;;26.29;100.00
11413;BME280;5762;43.256;26.960;2022-08-07T05:50:01;99305.67;;;26.42;100.00
11413;BME280;5762;43.256;26.960;2022-08-07T05:52:30;99294.34;;;26.44;100.00
11413;BME280;5762;43.256;26.960;2022-08-07T05:55:00;99298.70;;;26.60;100.00
11413;BME280;5762;43.256;26.960;2022-08-07T05:57:29;99293.77;;;26.71;100.00
11413;BME280;5762;43.256;26.960;2022-08-07T05:59:58;99293.86;;;26.80;100.00
11413;BME280;5762;43.256;26.960;2022-08-07T06:02:29;99293.58;;;26.86;100.00
11413;BME280;5762;43.256;26.960;2022-08-07T06:05:00;99301.19;;;26.97;100.00
11413;BME280;5762;43.256;26.960;2022-08-07T06:07:28;99299.14;;;27.01;100.00
11413;BME280;5762;43.256;26.960;2022-08-07T06:09:58;99299.33;;;27.14;100.00
11413;BME280;5762;43.256;26.960;2022-08-07T06:12:27;99296.75;;;27.26;100.00
11413;BME280;5762;43.256;26.960;2022-08-07T06:14:57;99292.94;;;27.40;100.00
11413;BME280;5762;43.256;26.960;2022-08-07T06:17:26;99289.77;;;27.65;100.00
11413;BME280;5762;43.256;26.960;2022-08-07T06:19:55;99287.47;;;27.72;100.00
11413;BME280;5762;43.256;26.960;2022-08-07T06:22:25;99289.19;;;27.85;100.00
11413;BME280;5762;43.256;26.960;2022-08-07T06:24:56;99289.06;;;27.92;100.00
11413;BME280;5762;43.256;26.960;2022-08-07T06:27:24;99288.81;;;27.95;100.00
11413;BME280;5762;43.256;26.960;2022-08-07T06:29:54;99286.86;;;28.03;100.00
11413;BME280;5762;43.256;26.960;2022-08-07T06:34:52;99289.95;;;28.17;100.00
11413;BME280;5762;43.256;26.960;2022-08-07T06:37:21;99284.70;;;28.23;100.00
11413;BME280;5762;43.256;26.960;2022-08-07T06:39:51;99289.70;;;28.31;100.00
11413;BME280;5762;43.256;26.960;2022-08-07T06:42:22;99288.92;;;28.31;100.00
11413;BME280;5762;43.256;26.960;2022-08-07T06:44:50;99291.74;;;28.39;100.00
11413;BME280;5762;43.256;26.960;2022-08-07T06:49:49;99289.38;;;28.65;100.00
11413;BME280;5762;43.256;26.960;2022-08-07T06:54:48;99297.17;;;28.82;100.00
11413;BME280;5762;43.256;26.960;2022-08-07T06:57:17;99292.56;;;28.84;100.00
11413;BME280;5762;43.256;26.960;2022-08-07T06:59:47;99289.20;;;28.64;100.00
11413;BME280;5762;43.256;26.960;2022-08-07T07:02:18;99289.63;;;28.63;100.00
11413;BME280;5762;43.256;26.960;2022-08-07T07:04:47;99294.19;;;28.73;100.00
11413;BME280;5762;43.256;26.960;2022-08-07T07:07:16;99281.72;;;28.78;100.00
11413;BME280;5762;43.256;26.960;2022-08-07T07:09:46;99289.18;;;28.92;100.00
11413;BME280;5762;43.256;26.960;2022-08-07T07:17:18;99290.43;;;29.08;100.00
11413;BME280;5762;43.256;26.960;2022-08-07T07:19:46;99301.30;;;29.18;100.00
11413;BME280;5762;43.256;26.960;2022-08-07T07:22:15;99283.46;;;29.08;100.00
11413;BME280;5762;43.256;26.960;2022-08-07T07:24:44;99295.81;;;29.23;100.00
11413;BME280;5762;43.256;26.960;2022-08-07T07:27:14;99289.37;;;29.18;100.00
11413;BME280;5762;43.256;26.960;2022-08-07T07:29:48;99295.89;;;29.11;100.00
11413;BME280;5762;43.256;26.960;2022-08-07T07:32:14;99286.77;;;29.27;100.00
11413;BME280;5762;43.256;26.960;2022-08-07T07:34:45;99291.72;;;29.19;100.00
11413;BME280;5762;43.256;26.960;2022-08-07T07:37:13;99299.48;;;29.28;100.00
11413;BME280;5762;43.256;26.960;2022-08-07T07:39:43;99304.19;;;29.31;100.00
11413;BME280;5762;43.256;26.960;2022-08-07T07:42:13;99297.48;;;29.37;100.00
11413;BME280;5762;43.256;26.960;2022-08-07T07:44:43;99298.27;;;29.37;100.00
11413;BME280;5762;43.256;26.960;2022-08-07T07:47:13;99300.97;;;29.57;100.00
11413;BME280;5762;43.256;26.960;2022-08-07T07:49:42;99297.20;;;29.72;100.00
11413;BME280;5762;43.256;26.960;2022-08-07T07:52:12;99309.46;;;29.82;100.00
11413;BME280;5762;43.256;26.960;2022-08-07T07:54:42;99300.17;;;29.73;100.00
11413;BME280;5762;43.256;26.960;2022-08-07T07:57:12;99292.89;;;29.99;100.00
11413;BME280;5762;43.256;26.960;2022-08-07T07:59:41;99296.38;;;30.45;100.00
11413;BME280;5762;43.256;26.960;2022-08-07T08:02:11;99297.23;;;30.84;100.00
11413;BME280;5762;43.256;26.960;2022-08-07T08:04:40;99305.00;;;31.10;100.00
11413;BME280;5762;43.256;26.960;2022-08-07T08:07:10;99297.48;;;31.15;100.00
11413;BME280;5762;43.256;26.960;2022-08-07T08:09:40;99296.36;;;31.12;100.00
11413;BME280;5762;43.256;26.960;2022-08-07T08:12:09;99303.55;;;31.05;100.00
11413;BME280;5762;43.256;26.960;2022-08-07T08:17:09;99293.05;;;30.84;100.00
11413;BME280;5762;43.256;26.960;2022-08-07T08:19:38;99292.58;;;30.73;100.00
11413;BME280;5762;43.256;26.960;2022-08-07T08:22:09;99290.89;;;30.88;100.00
11413;BME280;5762;43.256;26.960;2022-08-07T08:24:40;99300.27;;;31.15;100.00
11413;BME280;5762;43.256;26.960;2022-08-07T08:27:07;99280.22;;;31.29;100.00
11413;BME280;5762;43.256;26.960;2022-08-07T08:32:08;99292.30;;;31.26;100.00
11413;BME280;5762;43.256;26.960;2022-08-07T08:34:37;99290.61;;;31.41;99.31
11413;BME280;5762;43.256;26.960;2022-08-07T08:37:06;99285.64;;;31.28;100.00
11413;BME280;5762;43.256;26.960;2022-08-07T08:39:36;99286.34;;;31.49;99.64
11413;BME280;5762;43.256;26.960;2022-08-07T08:42:06;99282.59;;;31.48;97.02
11413;BME280;5762;43.256;26.960;2022-08-07T08:54:37;99292.64;;;31.92;83.57
11413;BME280;5762;43.256;26.960;2022-08-07T08:57:05;99283.91;;;31.90;80.94
11413;BME280;5762;43.256;26.960;2022-08-07T08:59:38;99289.38;;;31.72;78.38
11413;BME280;5762;43.256;26.960;2022-08-07T09:02:06;99274.55;;;31.84;78.64
11413;BME280;5762;43.256;26.960;2022-08-07T09:07:05;99276.01;;;31.93;78.18
11413;BME280;5762;43.256;26.960;2022-08-07T09:34:28;99279.28;;;32.14;81.01
11413;BME280;5762;43.256;26.960;2022-08-07T09:54:27;99266.00;;;32.27;81.90
11413;BME280;5762;43.256;26.960;2022-08-07T09:56:57;99256.91;;;32.40;81.26
11413;BME280;5762;43.256;26.960;2022-08-07T10:19:23;99253.37;;;33.29;75.96
11413;BME280;5762;43.256;26.960;2022-08-07T10:21:54;99246.06;;;32.78;79.12
11413;BME280;5762;43.256;26.960;2022-08-07T10:34:23;99228.00;;;33.42;76.41
11413;BME280;5762;43.256;26.960;2022-08-07T11:01:47;99213.36;;;33.51;74.30
11413;BME280;5762;43.256;26.960;2022-08-07T11:06:49;99220.67;;;33.67;74.07
11413;BME280;5762;43.256;26.960;2022-08-07T11:09:16;99216.02;;;33.55;69.55
11413;BME280;5762;43.256;26.960;2022-08-07T11:14:14;99227.84;;;34.05;68.98
11413;BME280;5762;43.256;26.960;2022-08-07T11:21:44;99209.28;;;33.66;72.39
11413;BME280;5762;43.256;26.960;2022-08-07T11:29:22;99199.17;;;33.87;71.55
11413;BME280;5762;43.256;26.960;2022-08-07T11:31:42;99205.03;;;34.21;68.90
11413;BME280;5762;43.256;26.960;2022-08-07T11:41:41;99206.92;;;33.23;69.00
11413;BME280;5762;43.256;26.960;2022-08-07T12:06:41;99209.28;;;33.98;68.82
11413;BME280;5762;43.256;26.960;2022-08-07T12:09:08;99203.81;;;33.99;63.37
11413;BME280;5762;43.256;26.960;2022-08-07T12:16:35;99226.82;;;32.31;89.16
11413;BME280;5762;43.256;26.960;2022-08-07T12:21:36;99244.22;;;31.48;100.00
11413;BME280;5762;43.256;26.960;2022-08-07T12:34:03;99278.83;;;27.97;100.00
11413;BME280;5762;43.256;26.960;2022-08-07T12:36:32;99264.23;;;27.00;100.00
11413;BME280;5762;43.256;26.960;2022-08-07T12:39:03;99247.75;;;26.86;100.00
11413;BME280;5762;43.256;26.960;2022-08-07T12:41:33;99236.13;;;26.94;100.00
11413;BME280;5762;43.256;26.960;2022-08-07T12:51:36;99242.66;;;27.43;100.00
11413;BME280;5762;43.256;26.960;2022-08-07T12:59:03;99245.57;;;28.10;100.00
11413;BME280;5762;43.256;26.960;2022-08-07T13:01:34;99244.72;;;28.61;100.00
11413;BME280;5762;43.256;26.960;2022-08-07T13:09:01;99234.87;;;29.78;100.00
11413;BME280;5762;43.256;26.960;2022-08-07T13:26:31;99214.84;;;31.14;100.00
11413;BME280;5762;43.256;26.960;2022-08-07T13:31:29;99203.61;;;32.26;100.00
11413;BME280;5762;43.256;26.960;2022-08-07T13:33:59;99212.47;;;32.60;100.00
11413;BME280;5762;43.256;26.960;2022-08-07T13:38:59;99207.90;;;32.76;100.00
11413;BME280;5762;43.256;26.960;2022-08-07T13:41:29;99208.43;;;32.61;100.00
11413;BME280;5762;43.256;26.960;2022-08-07T13:43:56;99196.90;;;33.00;100.00
11413;BME280;5762;43.256;26.960;2022-08-07T13:46:27;99201.48;;;33.24;98.88
11413;BME280;5762;43.256;26.960;2022-08-07T13:48:55;99199.27;;;33.15;98.80
11413;BME280;5762;43.256;26.960;2022-08-07T13:51:25;99194.65;;;33.44;96.01
11413;BME280;5762;43.256;26.960;2022-08-07T13:53:57;99194.02;;;33.44;94.68
11413;BME280;5762;43.256;26.960;2022-08-07T13:56:24;99195.58;;;33.41;91.66
11413;BME280;5762;43.256;26.960;2022-08-07T13:58:54;99193.69;;;33.24;94.55
11413;BME280;5762;43.256;26.960;2022-08-07T14:01:26;99191.30;;;33.04;94.24
11413;BME280;5762;43.256;26.960;2022-08-07T14:03:55;99185.85;;;33.05;93.67
11413;BME280;5762;43.256;26.960;2022-08-07T14:08:55;99177.66;;;33.56;87.41
11413;BME280;5762;43.256;26.960;2022-08-07T14:11:25;99181.53;;;33.63;87.35
11413;BME280;5762;43.256;26.960;2022-08-07T14:13:55;99178.75;;;33.45;88.62
11413;BME280;5762;43.256;26.960;2022-08-07T14:16:25;99180.14;;;33.32;85.68
11413;BME280;5762;43.256;26.960;2022-08-07T14:18:53;99175.92;;;33.22;88.03
11413;BME280;5762;43.256;26.960;2022-08-07T14:21:25;99186.03;;;33.15;87.80
11413;BME280;5762;43.256;26.960;2022-08-07T14:23:55;99187.16;;;33.36;88.48
11413;BME280;5762;43.256;26.960;2022-08-07T14:26:25;99180.59;;;33.21;88.40
11413;BME280;5762;43.256;26.960;2022-08-07T14:28:52;99180.55;;;32.89;85.19
11413;BME280;5762;43.256;26.960;2022-08-07T14:31:22;99182.72;;;32.89;82.92
11413;BME280;5762;43.256;26.960;2022-08-07T14:33:52;99188.63;;;32.87;83.20
11413;BME280;5762;43.256;26.960;2022-08-07T14:36:21;99187.38;;;32.83;80.24
11413;BME280;5762;43.256;26.960;2022-08-07T14:38:51;99188.55;;;32.73;88.43
11413;BME280;5762;43.256;26.960;2022-08-07T14:43:50;99179.63;;;31.99;100.00
11413;BME280;5762;43.256;26.960;2022-08-07T14:46:20;99175.88;;;32.59;94.79
11413;BME280;5762;43.256;26.960;2022-08-07T14:51:20;99178.84;;;32.51;94.92
11413;BME280;5762;43.256;26.960;2022-08-07T14:53:49;99176.20;;;32.61;80.97
11413;BME280;5762;43.256;26.960;2022-08-07T14:56:19;99177.44;;;32.91;77.97
11413;BME280;5762;43.256;26.960;2022-08-07T14:58:50;99180.72;;;33.08;74.17
11413;BME280;5762;43.256;26.960;2022-08-07T15:01:19;99181.08;;;33.38;68.82
11413;BME280;5762;43.256;26.960;2022-08-07T15:03:48;99176.09;;;33.42;61.13
11413;BME280;5762;43.256;26.960;2022-08-07T15:08:47;99174.34;;;33.12;58.37
11413;BME280;5762;43.256;26.960;2022-08-07T15:11:18;99175.09;;;32.90;55.71
11413;BME280;5762;43.256;26.960;2022-08-07T15:13:55;99172.20;;;32.72;56.18
11413;BME280;5762;43.256;26.960;2022-08-07T15:16:16;99177.77;;;32.62;57.12
11413;BME280;5762;43.256;26.960;2022-08-07T15:18:46;99182.44;;;32.56;57.26
11413;BME280;5762;43.256;26.960;2022-08-07T15:21:17;99181.14;;;32.44;56.63
11413;BME280;5762;43.256;26.960;2022-08-07T15:23:47;99174.02;;;32.21;57.74
11413;BME280;5762;43.256;26.960;2022-08-07T15:26:16;99176.67;;;32.24;56.81
11413;BME280;5762;43.256;26.960;2022-08-07T15:28:45;99180.45;;;32.30;55.70
11413;BME280;5762;43.256;26.960;2022-08-07T15:31:14;99183.30;;;32.40;56.44
11413;BME280;5762;43.256;26.960;2022-08-07T15:33:44;99178.31;;;32.39;56.42
11413;BME280;5762;43.256;26.960;2022-08-07T15:36:13;99179.18;;;32.27;55.91
11413;BME280;5762;43.256;26.960;2022-08-07T15:38:43;99177.62;;;32.26;56.26
11413;BME280;5762;43.256;26.960;2022-08-07T15:41:14;99185.86;;;32.25;56.22
11413;BME280;5762;43.256;26.960;2022-08-07T15:43:42;99186.39;;;32.11;57.16
11413;BME280;5762;43.256;26.960;2022-08-07T15:48:42;99183.95;;;31.95;56.31
11413;BME280;5762;43.256;26.960;2022-08-07T15:53:42;99194.38;;;31.95;57.29
11413;BME280;5762;43.256;26.960;2022-08-07T15:56:11;99192.03;;;31.93;58.13
11413;BME280;5762;43.256;26.960;2022-08-07T15:58:51;99195.12;;;31.86;57.18
11413;BME280;5762;43.256;26.960;2022-08-07T16:01:14;99199.53;;;31.75;56.83
11413;BME280;5762;43.256;26.960;2022-08-07T16:03:40;99206.33;;;31.69;57.40
11413;BME280;5762;43.256;26.960;2022-08-07T16:06:10;99206.09;;;31.63;55.88
11413;BME280;5762;43.256;26.960;2022-08-07T16:08:40;99208.52;;;31.57;54.54
11413;BME280;5762;43.256;26.960;2022-08-07T16:11:12;99207.56;;;31.51;55.02
11413;BME280;5762;43.256;26.960;2022-08-07T16:31:17;99229.80;;;31.07;52.40
11413;BME280;5762;43.256;26.960;2022-08-07T16:33:40;99224.98;;;31.08;52.51
11413;BME280;5762;43.256;26.960;2022-08-07T16:38:41;99223.99;;;30.89;53.41
11413;BME280;5762;43.256;26.960;2022-08-07T16:51:11;99244.19;;;30.63;55.73
11413;BME280;5762;43.256;26.960;2022-08-07T16:53:41;99241.67;;;30.60;56.47
11413;BME280;5762;43.256;26.960;2022-08-07T16:58:41;99243.86;;;30.40;58.22
11413;BME280;5762;43.256;26.960;2022-08-07T17:08:37;99239.67;;;29.98;62.79
11413;BME280;5762;43.256;26.960;2022-08-07T17:11:08;99245.09;;;29.89;63.92
11413;BME280;5762;43.256;26.960;2022-08-07T17:13:38;99241.94;;;29.75;65.11
11413;BME280;5762;43.256;26.960;2022-08-07T17:21:09;99245.13;;;29.36;69.19
11413;BME280;5762;43.256;26.960;2022-08-07T17:31:03;99269.08;;;28.93;73.08
11413;BME280;5762;43.256;26.960;2022-08-07T17:38:33;99278.59;;;28.67;74.82
11413;BME280;5762;43.256;26.960;2022-08-07T17:43:30;99291.06;;;28.51;75.78
11413;BME280;5762;43.256;26.960;2022-08-07T17:48:30;99287.99;;;28.38;75.77
11413;BME280;5762;43.256;26.960;2022-08-07T18:01:23;99312.03;;;27.96;75.81
11413;BME280;5762;43.256;26.960;2022-08-07T18:03:52;99314.77;;;27.88;76.08
11413;BME280;5762;43.256;26.960;2022-08-07T18:06:21;99322.69;;;27.78;76.34
11413;BME280;5762;43.256;26.960;2022-08-07T18:08:49;99327.61;;;27.71;76.22
11413;BME280;5762;43.256;26.960;2022-08-07T18:11:20;99323.86;;;27.69;76.57
11413;BME280;5762;43.256;26.960;2022-08-07T18:18:48;99346.61;;;27.37;78.40
11413;BME280;5762;43.256;26.960;2022-08-07T18:23:52;99351.78;;;27.23;79.03
11413;BME280;5762;43.256;26.960;2022-08-07T18:26:23;99352.25;;;27.18;79.03
11413;BME280;5762;43.256;26.960;2022-08-07T18:28:54;99351.98;;;27.09;80.37
11413;BME280;5762;43.256;26.960;2022-08-07T18:36:20;99364.76;;;27.03;82.13
11413;BME280;5762;43.256;26.960;2022-08-07T18:43:52;99375.36;;;26.81;85.85
11413;BME280;5762;43.256;26.960;2022-08-07T18:46:21;99375.06;;;26.72;86.60
11413;BME280;5762;43.256;26.960;2022-08-07T18:48:52;99378.63;;;26.73;85.58
11413;BME280;5762;43.256;26.960;2022-08-07T18:51:19;99379.20;;;26.60;85.57
11413;BME280;5762;43.256;26.960;2022-08-07T18:53:51;99375.86;;;26.57;84.43
11413;BME280;5762;43.256;26.960;2022-08-07T19:06:16;99386.33;;;26.61;78.21
11413;BME280;5762;43.256;26.960;2022-08-07T19:11:15;99384.37;;;26.58;77.33
11413;BME280;5762;43.256;26.960;2022-08-07T19:18:46;99398.33;;;26.51;78.28
11413;BME280;5762;43.256;26.960;2022-08-07T19:26:12;99398.66;;;26.19;82.98
11413;BME280;5762;43.256;26.960;2022-08-07T19:28:43;99394.38;;;26.11;83.61
11413;BME280;5762;43.256;26.960;2022-08-07T19:31:15;99401.75;;;26.06;84.32